sensor_id;sensor_type;location;lat;lon;timestamp;P1;durP1;ratioP1;P2;durP2;ratioP2
33678;SDS011;23143;49.474;11.082;2023-04-24T00:00:17;3.60;;;1.80;;
33678;SDS011;23143;49.474;11.082;2023-04-24T00:00:48;2.70;;;1.67;;
33678;SDS011;23143;49.474;11.082;2023-04-24T00:01:19;1.70;;;1.40;;
33678;SDS011;23143;49.474;11.082;2023-04-24T00:01:49;2.17;;;1.55;;
33678;SDS011;23143;49.474;11.082;2023-04-24T00:02:20;7.53;;;1.65;;
33678;SDS011;23143;49.474;11.082;2023-04-24T00:02:52;2.35;;;1.73;;
33678;SDS011;23143;49.474;11.082;2023-04-24T00:03:27;3.60;;;2.00;;
33678;SDS011;23143;49.474;11.082;2023-04-24T00:03:58;3.72;;;1.30;;
33678;SDS011;23143;49.474;11.082;2023-04-24T00:04:29;3.60;;;1.98;;
33678;SDS011;23143;49.474;11.082;2023-04-24T00:05:01;3.38;;;1.95;;
33678;SDS011;23143;49.474;11.082;2023-04-24T00:05:32;3.17;;;1.90;;
33678;SDS011;23143;49.474;11.082;2023-04-24T00:06:03;2.35;;;1.63;;
33678;SDS011;23143;49.474;11.082;2023-04-24T00:06:37;2.33;;;1.58;;
33678;SDS011;23143;49.474;11.082;2023-04-24T00:07:08;3.33;;;1.77;;
33678;SDS011;23143;49.474;11.082;2023-04-24T00:07:39;2.55;;;1.70;;
33678;SDS011;23143;49.474;11.082;2023-04-24T00:08:10;4.40;;;1.70;;
33678;SDS011;23143;49.474;11.082;2023-04-24T00:08:41;2.92;;;2.05;;
33678;SDS011;23143;49.474;11.082;2023-04-24T00:09:12;1.85;;;1.65;;
33678;SDS011;23143;49.474;11.082;2023-04-24T00:09:43;3.38;;;1.50;;
33678;SDS011;23143;49.474;11.082;2023-04-24T00:10:13;4.32;;;1.90;;
33678;SDS011;23143;49.474;11.082;2023-04-24T00:10:44;2.25;;;1.83;;
33678;SDS011;23143;49.474;11.082;2023-04-24T00:11:16;2.38;;;1.60;;
33678;SDS011;23143;49.474;11.082;2023-04-24T00:11:46;4.35;;;1.38;;
33678;SDS011;23143;49.474;11.082;2023-04-24T00:12:17;4.40;;;1.70;;
33678;SDS011;23143;49.474;11.082;2023-04-24T00:12:48;2.15;;;1.75;;
33678;SDS011;23143;49.474;11.082;2023-04-24T00:13:18;2.65;;;1.73;;
33678;SDS011;23143;49.474;11.082;2023-04-24T00:13:49;2.95;;;1.92;;
33678;SDS011;23143;49.474;11.082;2023-04-24T00:14:20;3.80;;;1.92;;
33678;SDS011;23143;49.474;11.082;2023-04-24T00:14:50;4.32;;;1.77;;
33678;SDS011;23143;49.474;11.082;2023-04-24T00:15:21;2.58;;;1.92;;
33678;SDS011;23143;49.474;11.082;2023-04-24T00:15:52;2.60;;;2.03;;
33678;SDS011;23143;49.474;11.082;2023-04-24T00:16:22;4.68;;;1.60;;
33678;SDS011;23143;49.474;11.082;2023-04-24T00:16:53;2.65;;;2.13;;
33678;SDS011;23143;49.474;11.082;2023-04-24T00:17:24;2.13;;;1.70;;
33678;SDS011;23143;49.474;11.082;2023-04-24T00:17:54;4.18;;;1.75;;
33678;SDS011;23143;49.474;11.082;2023-04-24T00:18:25;3.90;;;2.00;;
33678;SDS011;23143;49.474;11.082;2023-04-24T00:18:56;3.60;;;2.00;;
33678;SDS011;23143;49.474;11.082;2023-04-24T00:19:27;4.40;;;1.88;;
33678;SDS011;23143;49.474;11.082;2023-04-24T00:19:58;2.83;;;1.90;;
33678;SDS011;23143;49.474;11.082;2023-04-24T00:20:29;6.80;;;1.95;;
33678;SDS011;23143;49.474;11.082;2023-04-24T00:21:00;3.30;;;2.20;;
33678;SDS011;23143;49.474;11.082;2023-04-24T00:21:30;2.40;;;1.75;;
33678;SDS011;23143;49.474;11.082;2023-04-24T00:22:02;3.03;;;1.90;;
33678;SDS011;23143;49.474;11.082;2023-04-24T00:22:33;2.28;;;1.38;;
33678;SDS011;23143;49.474;11.082;2023-04-24T00:23:04;4.10;;;1.63;;
33678;SDS011;23143;49.474;11.082;2023-04-24T00:23:34;4.55;;;2.03;;
33678;SDS011;23143;49.474;11.082;2023-04-24T00:24:05;3.75;;;1.90;;
33678;SDS011;23143;49.474;11.082;2023-04-24T00:24:36;1.80;;;1.67;;
33678;SDS011;23143;49.474;11.082;2023-04-24T00:25:07;2.03;;;1.70;;
33678;SDS011;23143;49.474;11.082;2023-04-24T00:25:38;2.08;;;1.88;;
33678;SDS011;23143;49.474;11.082;2023-04-24T00:26:09;3.47;;;1.45;;
33678;SDS011;23143;49.474;11.082;2023-04-24T00:26:40;2.13;;;1.77;;
33678;SDS011;23143;49.474;11.082;2023-04-24T00:27:10;2.58;;;1.67;;
33678;SDS011;23143;49.474;11.082;2023-04-24T00:27:41;2.63;;;1.73;;
33678;SDS011;23143;49.474;11.082;2023-04-24T00:28:11;2.45;;;1.30;;
33678;SDS011;23143;49.474;11.082;2023-04-24T00:28:42;1.83;;;1.40;;
33678;SDS011;23143;49.474;11.082;2023-04-24T00:29:13;2.15;;;1.80;;
33678;SDS011;23143;49.474;11.082;2023-04-24T00:29:44;3.22;;;1.92;;
33678;SDS011;23143;49.474;11.082;2023-04-24T00:30:14;2.70;;;1.73;;
33678;SDS011;23143;49.474;11.082;2023-04-24T00:30:45;2.30;;;1.60;;
33678;SDS011;23143;49.474;11.082;2023-04-24T00:31:16;2.25;;;1.75;;
33678;SDS011;23143;49.474;11.082;2023-04-24T00:31:47;2.80;;;1.50;;
33678;SDS011;23143;49.474;11.082;2023-04-24T00:32:18;5.82;;;1.88;;
33678;SDS011;23143;49.474;11.082;2023-04-24T00:32:49;3.60;;;1.70;;
33678;SDS011;23143;49.474;11.082;2023-04-24T00:33:19;3.22;;;1.70;;
33678;SDS011;23143;49.474;11.082;2023-04-24T00:33:50;2.97;;;1.75;;
33678;SDS011;23143;49.474;11.082;2023-04-24T00:34:21;4.82;;;1.80;;
33678;SDS011;23143;49.474;11.082;2023-04-24T00:34:52;2.65;;;1.98;;
33678;SDS011;23143;49.474;11.082;2023-04-24T00:35:22;5.32;;;1.95;;
33678;SDS011;23143;49.474;11.082;2023-04-24T00:35:53;1.98;;;1.65;;
33678;SDS011;23143;49.474;11.082;2023-04-24T00:36:24;2.88;;;1.70;;
33678;SDS011;23143;49.474;11.082;2023-04-24T00:36:55;2.63;;;1.67;;
33678;SDS011;23143;49.474;11.082;2023-04-24T00:37:25;3.17;;;1.65;;
33678;SDS011;23143;49.474;11.082;2023-04-24T00:37:56;2.65;;;1.77;;
33678;SDS011;23143;49.474;11.082;2023-04-24T00:38:27;1.70;;;1.60;;
33678;SDS011;23143;49.474;11.082;2023-04-24T00:38:57;1.70;;;1.40;;
33678;SDS011;23143;49.474;11.082;2023-04-24T00:39:28;2.00;;;1.60;;
33678;SDS011;23143;49.474;11.082;2023-04-24T00:39:59;2.78;;;1.63;;
33678;SDS011;23143;49.474;11.082;2023-04-24T00:40:30;3.13;;;1.63;;
33678;SDS011;23143;49.474;11.082;2023-04-24T00:41:00;1.77;;;1.60;;
33678;SDS011;23143;49.474;11.082;2023-04-24T00:41:31;2.92;;;1.60;;
33678;SDS011;23143;49.474;11.082;2023-04-24T00:42:02;1.50;;;1.40;;
33678;SDS011;23143;49.474;11.082;2023-04-24T00:42:33;2.30;;;1.90;;
33678;SDS011;23143;49.474;11.082;2023-04-24T00:43:04;2.63;;;1.75;;
33678;SDS011;23143;49.474;11.082;2023-04-24T00:43:34;2.50;;;1.85;;
33678;SDS011;23143;49.474;11.082;2023-04-24T00:44:05;2.97;;;1.75;;
33678;SDS011;23143;49.474;11.082;2023-04-24T00:44:36;4.82;;;1.65;;
33678;SDS011;23143;49.474;11.082;2023-04-24T00:45:06;5.90;;;2.05;;
33678;SDS011;23143;49.474;11.082;2023-04-24T00:45:37;2.70;;;1.83;;
33678;SDS011;23143;49.474;11.082;2023-04-24T00:46:08;2.83;;;1.83;;
33678;SDS011;23143;49.474;11.082;2023-04-24T00:46:39;3.92;;;1.90;;
33678;SDS011;23143;49.474;11.082;2023-04-24T00:47:10;2.22;;;1.75;;
33678;SDS011;23143;49.474;11.082;2023-04-24T00:47:42;3.33;;;1.70;;
33678;SDS011;23143;49.474;11.082;2023-04-24T00:48:12;1.55;;;1.45;;
33678;SDS011;23143;49.474;11.082;2023-04-24T00:48:43;2.03;;;1.60;;
33678;SDS011;23143;49.474;11.082;2023-04-24T00:49:14;4.25;;;1.70;;
33678;SDS011;23143;49.474;11.082;2023-04-24T00:49:45;1.60;;;1.50;;
33678;SDS011;23143;49.474;11.082;2023-04-24T00:50:15;2.25;;;1.70;;
33678;SDS011;23143;49.474;11.082;2023-04-24T00:50:46;4.25;;;1.65;;
33678;SDS011;23143;49.474;11.082;2023-04-24T00:51:17;2.33;;;1.70;;
33678;SDS011;23143;49.474;11.082;2023-04-24T00:51:48;2.85;;;1.95;;
33678;SDS011;23143;49.474;11.082;2023-04-24T00:52:19;3.05;;;1.90;;
33678;SDS011;23143;49.474;11.082;2023-04-24T00:52:50;3.47;;;1.90;;
33678;SDS011;23143;49.474;11.082;2023-04-24T00:53:21;2.33;;;1.50;;
33678;SDS011;23143;49.474;11.082;2023-04-24T00:53:52;2.95;;;1.65;;
33678;SDS011;23143;49.474;11.082;2023-04-24T00:54:22;2.50;;;1.70;;
33678;SDS011;23143;49.474;11.082;2023-04-24T00:54:53;2.42;;;1.63;;
33678;SDS011;23143;49.474;11.082;2023-04-24T00:55:26;2.13;;;1.55;;
33678;SDS011;23143;49.474;11.082;2023-04-24T00:55:56;2.15;;;1.67;;
33678;SDS011;23143;49.474;11.082;2023-04-24T00:56:28;3.53;;;1.50;;
33678;SDS011;23143;49.474;11.082;2023-04-24T00:56:59;3.45;;;1.50;;
33678;SDS011;23143;49.474;11.082;2023-04-24T00:57:31;4.25;;;2.42;;
33678;SDS011;23143;49.474;11.082;2023-04-24T00:58:01;2.92;;;2.00;;
33678;SDS011;23143;49.474;11.082;2023-04-24T00:58:32;3.47;;;1.48;;
33678;SDS011;23143;49.474;11.082;2023-04-24T00:59:03;2.30;;;1.38;;
33678;SDS011;23143;49.474;11.082;2023-04-24T00:59:35;3.67;;;2.00;;
33678;SDS011;23143;49.474;11.082;2023-04-24T01:00:06;2.65;;;1.58;;
33678;SDS011;23143;49.474;11.082;2023-04-24T01:00:41;2.50;;;1.50;;
33678;SDS011;23143;49.474;11.082;2023-04-24T01:01:13;4.22;;;1.55;;
33678;SDS011;23143;49.474;11.082;2023-04-24T01:01:44;1.77;;;1.40;;
33678;SDS011;23143;49.474;11.082;2023-04-24T01:02:15;3.65;;;1.55;;
33678;SDS011;23143;49.474;11.082;2023-04-24T01:02:46;3.63;;;1.90;;
33678;SDS011;23143;49.474;11.082;2023-04-24T01:03:17;2.55;;;1.80;;
33678;SDS011;23143;49.474;11.082;2023-04-24T01:03:48;2.08;;;1.63;;
33678;SDS011;23143;49.474;11.082;2023-04-24T01:04:21;3.75;;;1.30;;
33678;SDS011;23143;49.474;11.082;2023-04-24T01:04:52;2.70;;;1.63;;
33678;SDS011;23143;49.474;11.082;2023-04-24T01:05:22;4.10;;;1.40;;
33678;SDS011;23143;49.474;11.082;2023-04-24T01:05:53;3.42;;;1.60;;
33678;SDS011;23143;49.474;11.082;2023-04-24T01:06:27;3.88;;;1.75;;
33678;SDS011;23143;49.474;11.082;2023-04-24T01:06:58;3.08;;;1.83;;
33678;SDS011;23143;49.474;11.082;2023-04-24T01:07:30;2.20;;;1.38;;
33678;SDS011;23143;49.474;11.082;2023-04-24T01:08:00;2.50;;;1.60;;
33678;SDS011;23143;49.474;11.082;2023-04-24T01:08:31;2.25;;;1.30;;
33678;SDS011;23143;49.474;11.082;2023-04-24T01:09:03;2.17;;;1.45;;
33678;SDS011;23143;49.474;11.082;2023-04-24T01:09:34;2.25;;;1.80;;
33678;SDS011;23143;49.474;11.082;2023-04-24T01:10:07;2.95;;;1.85;;
33678;SDS011;23143;49.474;11.082;2023-04-24T01:10:38;2.15;;;1.55;;
33678;SDS011;23143;49.474;11.082;2023-04-24T01:11:09;3.40;;;1.52;;
33678;SDS011;23143;49.474;11.082;2023-04-24T01:11:40;2.42;;;1.63;;
33678;SDS011;23143;49.474;11.082;2023-04-24T01:12:12;3.25;;;2.03;;
33678;SDS011;23143;49.474;11.082;2023-04-24T01:12:43;3.08;;;1.75;;
33678;SDS011;23143;49.474;11.082;2023-04-24T01:13:20;2.78;;;1.88;;
33678;SDS011;23143;49.474;11.082;2023-04-24T01:13:51;5.40;;;2.08;;
33678;SDS011;23143;49.474;11.082;2023-04-24T01:14:22;3.80;;;1.70;;
33678;SDS011;23143;49.474;11.082;2023-04-24T01:14:53;3.65;;;1.48;;
33678;SDS011;23143;49.474;11.082;2023-04-24T01:15:24;2.90;;;2.03;;
33678;SDS011;23143;49.474;11.082;2023-04-24T01:15:55;2.25;;;1.42;;
33678;SDS011;23143;49.474;11.082;2023-04-24T01:16:26;3.20;;;1.27;;
33678;SDS011;23143;49.474;11.082;2023-04-24T01:16:56;5.28;;;1.70;;
33678;SDS011;23143;49.474;11.082;2023-04-24T01:17:27;2.20;;;1.65;;
33678;SDS011;23143;49.474;11.082;2023-04-24T01:17:58;4.47;;;1.95;;
33678;SDS011;23143;49.474;11.082;2023-04-24T01:18:29;2.95;;;1.73;;
33678;SDS011;23143;49.474;11.082;2023-04-24T01:18:59;3.22;;;1.95;;
33678;SDS011;23143;49.474;11.082;2023-04-24T01:19:30;3.40;;;1.80;;
33678;SDS011;23143;49.474;11.082;2023-04-24T01:20:01;2.30;;;1.55;;
33678;SDS011;23143;49.474;11.082;2023-04-24T01:20:34;1.55;;;1.45;;
33678;SDS011;23143;49.474;11.082;2023-04-24T01:21:06;2.97;;;1.63;;
33678;SDS011;23143;49.474;11.082;2023-04-24T01:21:38;2.13;;;1.95;;
33678;SDS011;23143;49.474;11.082;2023-04-24T01:22:15;3.90;;;1.90;;
33678;SDS011;23143;49.474;11.082;2023-04-24T01:22:47;2.08;;;1.30;;
33678;SDS011;23143;49.474;11.082;2023-04-24T01:23:18;1.90;;;1.33;;
33678;SDS011;23143;49.474;11.082;2023-04-24T01:23:49;1.95;;;1.58;;
33678;SDS011;23143;49.474;11.082;2023-04-24T01:24:19;3.33;;;1.38;;
33678;SDS011;23143;49.474;11.082;2023-04-24T01:24:50;1.50;;;1.40;;
33678;SDS011;23143;49.474;11.082;2023-04-24T01:25:22;3.00;;;2.25;;
33678;SDS011;23143;49.474;11.082;2023-04-24T01:25:53;1.95;;;1.40;;
33678;SDS011;23143;49.474;11.082;2023-04-24T01:26:24;2.25;;;1.35;;
33678;SDS011;23143;49.474;11.082;2023-04-24T01:26:55;3.00;;;1.27;;
33678;SDS011;23143;49.474;11.082;2023-04-24T01:27:26;1.65;;;1.30;;
33678;SDS011;23143;49.474;11.082;2023-04-24T01:27:57;2.40;;;1.70;;
33678;SDS011;23143;49.474;11.082;2023-04-24T01:28:28;2.63;;;1.73;;
33678;SDS011;23143;49.474;11.082;2023-04-24T01:28:59;1.52;;;1.10;;
33678;SDS011;23143;49.474;11.082;2023-04-24T01:29:30;1.65;;;1.30;;
33678;SDS011;23143;49.474;11.082;2023-04-24T01:30:00;2.50;;;1.48;;
33678;SDS011;23143;49.474;11.082;2023-04-24T01:30:37;3.38;;;1.25;;
33678;SDS011;23143;49.474;11.082;2023-04-24T01:31:08;1.85;;;1.17;;
33678;SDS011;23143;49.474;11.082;2023-04-24T01:31:39;1.42;;;1.30;;
33678;SDS011;23143;49.474;11.082;2023-04-24T01:32:10;1.88;;;1.30;;
33678;SDS011;23143;49.474;11.082;2023-04-24T01:32:41;0.95;;;0.95;;
33678;SDS011;23143;49.474;11.082;2023-04-24T01:33:14;1.98;;;1.50;;
33678;SDS011;23143;49.474;11.082;2023-04-24T01:33:45;2.85;;;1.45;;
33678;SDS011;23143;49.474;11.082;2023-04-24T01:34:15;2.15;;;1.30;;
33678;SDS011;23143;49.474;11.082;2023-04-24T01:34:47;1.98;;;1.20;;
33678;SDS011;23143;49.474;11.082;2023-04-24T01:35:18;2.95;;;1.60;;
33678;SDS011;23143;49.474;11.082;2023-04-24T01:35:49;2.22;;;1.40;;
33678;SDS011;23143;49.474;11.082;2023-04-24T01:36:20;2.10;;;1.13;;
33678;SDS011;23143;49.474;11.082;2023-04-24T01:36:52;2.17;;;1.77;;
33678;SDS011;23143;49.474;11.082;2023-04-24T01:37:22;2.58;;;1.20;;
33678;SDS011;23143;49.474;11.082;2023-04-24T01:37:53;1.00;;;0.90;;
33678;SDS011;23143;49.474;11.082;2023-04-24T01:38:24;1.40;;;1.30;;
33678;SDS011;23143;49.474;11.082;2023-04-24T01:38:54;2.65;;;1.20;;
33678;SDS011;23143;49.474;11.082;2023-04-24T01:39:25;3.53;;;1.10;;
33678;SDS011;23143;49.474;11.082;2023-04-24T01:39:58;1.42;;;1.30;;
33678;SDS011;23143;49.474;11.082;2023-04-24T01:40:29;1.30;;;1.20;;
33678;SDS011;23143;49.474;11.082;2023-04-24T01:40:59;1.58;;;1.10;;
33678;SDS011;23143;49.474;11.082;2023-04-24T01:41:30;2.53;;;1.30;;
33678;SDS011;23143;49.474;11.082;2023-04-24T01:42:01;2.38;;;1.30;;
33678;SDS011;23143;49.474;11.082;2023-04-24T01:42:32;0.80;;;0.80;;
33678;SDS011;23143;49.474;11.082;2023-04-24T01:43:04;1.23;;;1.13;;
33678;SDS011;23143;49.474;11.082;2023-04-24T01:43:35;1.58;;;1.38;;
33678;SDS011;23143;49.474;11.082;2023-04-24T01:44:06;1.42;;;0.90;;
33678;SDS011;23143;49.474;11.082;2023-04-24T01:44:36;1.95;;;1.02;;
33678;SDS011;23143;49.474;11.082;2023-04-24T01:45:07;3.13;;;1.27;;
33678;SDS011;23143;49.474;11.082;2023-04-24T01:45:41;1.30;;;1.05;;
33678;SDS011;23143;49.474;11.082;2023-04-24T01:46:12;2.90;;;1.20;;
33678;SDS011;23143;49.474;11.082;2023-04-24T01:46:42;1.13;;;1.00;;
33678;SDS011;23143;49.474;11.082;2023-04-24T01:47:13;2.17;;;1.17;;
33678;SDS011;23143;49.474;11.082;2023-04-24T01:47:44;1.10;;;1.00;;
33678;SDS011;23143;49.474;11.082;2023-04-24T01:48:15;1.50;;;1.10;;
33678;SDS011;23143;49.474;11.082;2023-04-24T01:48:46;2.63;;;1.20;;
33678;SDS011;23143;49.474;11.082;2023-04-24T01:49:17;2.67;;;1.10;;
33678;SDS011;23143;49.474;11.082;2023-04-24T01:49:48;1.30;;;1.20;;
33678;SDS011;23143;49.474;11.082;2023-04-24T01:50:20;1.83;;;1.17;;
33678;SDS011;23143;49.474;11.082;2023-04-24T01:50:51;2.05;;;1.42;;
33678;SDS011;23143;49.474;11.082;2023-04-24T01:51:21;3.60;;;1.25;;
33678;SDS011;23143;49.474;11.082;2023-04-24T01:51:52;3.95;;;1.17;;
33678;SDS011;23143;49.474;11.082;2023-04-24T01:52:23;1.83;;;1.33;;
33678;SDS011;23143;49.474;11.082;2023-04-24T01:52:53;1.13;;;1.02;;
33678;SDS011;23143;49.474;11.082;2023-04-24T01:53:24;3.80;;;1.40;;
33678;SDS011;23143;49.474;11.082;2023-04-24T01:53:55;1.15;;;0.90;;
33678;SDS011;23143;49.474;11.082;2023-04-24T01:54:25;1.10;;;1.00;;
33678;SDS011;23143;49.474;11.082;2023-04-24T01:54:56;1.20;;;1.10;;
33678;SDS011;23143;49.474;11.082;2023-04-24T01:55:29;1.42;;;1.00;;
33678;SDS011;23143;49.474;11.082;2023-04-24T01:56:00;1.52;;;1.10;;
33678;SDS011;23143;49.474;11.082;2023-04-24T01:56:33;1.83;;;1.10;;
33678;SDS011;23143;49.474;11.082;2023-04-24T01:57:05;2.08;;;1.20;;
33678;SDS011;23143;49.474;11.082;2023-04-24T01:57:36;2.03;;;0.98;;
33678;SDS011;23143;49.474;11.082;2023-04-24T01:58:07;2.42;;;1.00;;
33678;SDS011;23143;49.474;11.082;2023-04-24T01:58:37;1.45;;;0.82;;
33678;SDS011;23143;49.474;11.082;2023-04-24T01:59:12;2.58;;;1.13;;
33678;SDS011;23143;49.474;11.082;2023-04-24T01:59:42;3.60;;;1.33;;
33678;SDS011;23143;49.474;11.082;2023-04-24T02:00:13;1.20;;;1.10;;
33678;SDS011;23143;49.474;11.082;2023-04-24T02:00:44;1.15;;;1.05;;
33678;SDS011;23143;49.474;11.082;2023-04-24T02:01:17;3.08;;;1.00;;
33678;SDS011;23143;49.474;11.082;2023-04-24T02:01:49;3.22;;;0.80;;
33678;SDS011;23143;49.474;11.082;2023-04-24T02:02:19;1.25;;;0.98;;
33678;SDS011;23143;49.474;11.082;2023-04-24T02:02:51;2.58;;;1.20;;
33678;SDS011;23143;49.474;11.082;2023-04-24T02:03:22;1.40;;;0.95;;
33678;SDS011;23143;49.474;11.082;2023-04-24T02:03:52;1.23;;;0.75;;
33678;SDS011;23143;49.474;11.082;2023-04-24T02:04:23;1.30;;;0.88;;
33678;SDS011;23143;49.474;11.082;2023-04-24T02:04:54;1.08;;;0.98;;
33678;SDS011;23143;49.474;11.082;2023-04-24T02:05:24;1.30;;;0.98;;
33678;SDS011;23143;49.474;11.082;2023-04-24T02:05:55;1.88;;;1.10;;
33678;SDS011;23143;49.474;11.082;2023-04-24T02:06:26;1.58;;;0.70;;
33678;SDS011;23143;49.474;11.082;2023-04-24T02:06:56;1.98;;;1.00;;
33678;SDS011;23143;49.474;11.082;2023-04-24T02:07:27;1.73;;;1.20;;
33678;SDS011;23143;49.474;11.082;2023-04-24T02:07:57;2.58;;;0.90;;
33678;SDS011;23143;49.474;11.082;2023-04-24T02:08:28;1.15;;;0.88;;
33678;SDS011;23143;49.474;11.082;2023-04-24T02:08:59;1.10;;;1.00;;
33678;SDS011;23143;49.474;11.082;2023-04-24T02:09:30;1.83;;;1.00;;
33678;SDS011;23143;49.474;11.082;2023-04-24T02:10:00;0.93;;;0.88;;
33678;SDS011;23143;49.474;11.082;2023-04-24T02:10:31;3.50;;;1.35;;
33678;SDS011;23143;49.474;11.082;2023-04-24T02:11:02;2.53;;;1.05;;
33678;SDS011;23143;49.474;11.082;2023-04-24T02:11:33;1.73;;;1.13;;
33678;SDS011;23143;49.474;11.082;2023-04-24T02:12:03;3.10;;;1.17;;
33678;SDS011;23143;49.474;11.082;2023-04-24T02:12:34;1.60;;;1.25;;
33678;SDS011;23143;49.474;11.082;2023-04-24T02:13:05;1.23;;;0.90;;
33678;SDS011;23143;49.474;11.082;2023-04-24T02:13:35;1.13;;;1.00;;
33678;SDS011;23143;49.474;11.082;2023-04-24T02:14:06;1.38;;;0.82;;
33678;SDS011;23143;49.474;11.082;2023-04-24T02:14:37;1.27;;;0.90;;
33678;SDS011;23143;49.474;11.082;2023-04-24T02:15:08;1.05;;;0.95;;
33678;SDS011;23143;49.474;11.082;2023-04-24T02:15:38;2.92;;;1.20;;
33678;SDS011;23143;49.474;11.082;2023-04-24T02:16:09;1.00;;;0.85;;
33678;SDS011;23143;49.474;11.082;2023-04-24T02:16:40;1.23;;;1.08;;
33678;SDS011;23143;49.474;11.082;2023-04-24T02:17:11;1.13;;;0.95;;
33678;SDS011;23143;49.474;11.082;2023-04-24T02:17:43;1.02;;;0.88;;
33678;SDS011;23143;49.474;11.082;2023-04-24T02:18:13;1.08;;;0.95;;
33678;SDS011;23143;49.474;11.082;2023-04-24T02:18:45;1.35;;;0.90;;
33678;SDS011;23143;49.474;11.082;2023-04-24T02:19:16;0.85;;;0.85;;
33678;SDS011;23143;49.474;11.082;2023-04-24T02:19:46;1.73;;;0.85;;
33678;SDS011;23143;49.474;11.082;2023-04-24T02:20:17;1.38;;;1.02;;
33678;SDS011;23143;49.474;11.082;2023-04-24T02:20:48;1.10;;;1.00;;
33678;SDS011;23143;49.474;11.082;2023-04-24T02:21:18;0.73;;;0.73;;
33678;SDS011;23143;49.474;11.082;2023-04-24T02:21:49;3.75;;;1.00;;
33678;SDS011;23143;49.474;11.082;2023-04-24T02:22:20;1.13;;;0.95;;
33678;SDS011;23143;49.474;11.082;2023-04-24T02:22:51;1.13;;;0.80;;
33678;SDS011;23143;49.474;11.082;2023-04-24T02:23:21;2.30;;;0.75;;
33678;SDS011;23143;49.474;11.082;2023-04-24T02:23:52;0.65;;;0.65;;
33678;SDS011;23143;49.474;11.082;2023-04-24T02:24:23;0.80;;;0.75;;
33678;SDS011;23143;49.474;11.082;2023-04-24T02:24:53;2.40;;;1.00;;
33678;SDS011;23143;49.474;11.082;2023-04-24T02:25:24;0.70;;;0.70;;
33678;SDS011;23143;49.474;11.082;2023-04-24T02:25:54;3.03;;;1.05;;
33678;SDS011;23143;49.474;11.082;2023-04-24T02:26:25;1.23;;;1.00;;
33678;SDS011;23143;49.474;11.082;2023-04-24T02:26:56;0.73;;;0.73;;
33678;SDS011;23143;49.474;11.082;2023-04-24T02:27:27;0.95;;;0.77;;
33678;SDS011;23143;49.474;11.082;2023-04-24T02:27:58;1.13;;;0.95;;
33678;SDS011;23143;49.474;11.082;2023-04-24T02:28:29;0.68;;;0.68;;
33678;SDS011;23143;49.474;11.082;2023-04-24T02:28:59;1.85;;;1.10;;
33678;SDS011;23143;49.474;11.082;2023-04-24T02:29:30;0.80;;;0.70;;
33678;SDS011;23143;49.474;11.082;2023-04-24T02:30:01;1.10;;;0.70;;
33678;SDS011;23143;49.474;11.082;2023-04-24T02:30:33;0.80;;;0.80;;
33678;SDS011;23143;49.474;11.082;2023-04-24T02:31:03;2.38;;;1.05;;
33678;SDS011;23143;49.474;11.082;2023-04-24T02:31:35;1.30;;;0.70;;
33678;SDS011;23143;49.474;11.082;2023-04-24T02:32:05;1.83;;;0.68;;
33678;SDS011;23143;49.474;11.082;2023-04-24T02:32:36;3.80;;;0.75;;
33678;SDS011;23143;49.474;11.082;2023-04-24T02:33:07;0.82;;;0.80;;
33678;SDS011;23143;49.474;11.082;2023-04-24T02:33:37;1.40;;;0.70;;
33678;SDS011;23143;49.474;11.082;2023-04-24T02:34:08;0.73;;;0.73;;
33678;SDS011;23143;49.474;11.082;2023-04-24T02:34:39;0.70;;;0.68;;
33678;SDS011;23143;49.474;11.082;2023-04-24T02:35:09;1.00;;;0.93;;
33678;SDS011;23143;49.474;11.082;2023-04-24T02:35:40;0.82;;;0.80;;
33678;SDS011;23143;49.474;11.082;2023-04-24T02:36:11;1.23;;;0.95;;
33678;SDS011;23143;49.474;11.082;2023-04-24T02:36:41;4.35;;;1.17;;
33678;SDS011;23143;49.474;11.082;2023-04-24T02:37:12;0.75;;;0.75;;
33678;SDS011;23143;49.474;11.082;2023-04-24T02:37:43;1.60;;;0.90;;
33678;SDS011;23143;49.474;11.082;2023-04-24T02:38:13;1.75;;;0.77;;
33678;SDS011;23143;49.474;11.082;2023-04-24T02:38:44;1.88;;;1.00;;
33678;SDS011;23143;49.474;11.082;2023-04-24T02:39:15;3.85;;;1.10;;
33678;SDS011;23143;49.474;11.082;2023-04-24T02:39:48;1.48;;;0.88;;
33678;SDS011;23143;49.474;11.082;2023-04-24T02:40:19;2.45;;;0.95;;
33678;SDS011;23143;49.474;11.082;2023-04-24T02:40:50;2.25;;;1.15;;
33678;SDS011;23143;49.474;11.082;2023-04-24T02:41:20;1.42;;;0.98;;
33678;SDS011;23143;49.474;11.082;2023-04-24T02:41:51;1.13;;;0.90;;
33678;SDS011;23143;49.474;11.082;2023-04-24T02:42:22;4.38;;;0.90;;
33678;SDS011;23143;49.474;11.082;2023-04-24T02:42:52;1.23;;;0.90;;
33678;SDS011;23143;49.474;11.082;2023-04-24T02:43:23;3.28;;;1.00;;
33678;SDS011;23143;49.474;11.082;2023-04-24T02:43:53;1.45;;;0.90;;
33678;SDS011;23143;49.474;11.082;2023-04-24T02:44:24;2.92;;;1.40;;
33678;SDS011;23143;49.474;11.082;2023-04-24T02:44:55;1.17;;;0.73;;
33678;SDS011;23143;49.474;11.082;2023-04-24T02:45:26;2.42;;;1.08;;
33678;SDS011;23143;49.474;11.082;2023-04-24T02:45:56;0.95;;;0.80;;
33678;SDS011;23143;49.474;11.082;2023-04-24T02:46:27;0.80;;;0.75;;
33678;SDS011;23143;49.474;11.082;2023-04-24T02:46:58;0.93;;;0.73;;
33678;SDS011;23143;49.474;11.082;2023-04-24T02:47:28;3.83;;;0.90;;
33678;SDS011;23143;49.474;11.082;2023-04-24T02:47:59;1.10;;;1.00;;
33678;SDS011;23143;49.474;11.082;2023-04-24T02:48:30;1.17;;;0.88;;
33678;SDS011;23143;49.474;11.082;2023-04-24T02:49:00;1.40;;;1.00;;
33678;SDS011;23143;49.474;11.082;2023-04-24T02:49:31;3.90;;;0.95;;
33678;SDS011;23143;49.474;11.082;2023-04-24T02:50:02;1.52;;;1.00;;
33678;SDS011;23143;49.474;11.082;2023-04-24T02:50:34;1.42;;;0.70;;
33678;SDS011;23143;49.474;11.082;2023-04-24T02:51:04;1.70;;;0.80;;
33678;SDS011;23143;49.474;11.082;2023-04-24T02:51:36;2.47;;;1.02;;
33678;SDS011;23143;49.474;11.082;2023-04-24T02:52:10;1.17;;;1.05;;
33678;SDS011;23143;49.474;11.082;2023-04-24T02:52:41;1.48;;;1.10;;
33678;SDS011;23143;49.474;11.082;2023-04-24T02:53:11;1.55;;;0.88;;
33678;SDS011;23143;49.474;11.082;2023-04-24T02:53:42;3.22;;;1.02;;
33678;SDS011;23143;49.474;11.082;2023-04-24T02:54:13;2.30;;;0.95;;
33678;SDS011;23143;49.474;11.082;2023-04-24T02:54:44;1.17;;;1.10;;
33678;SDS011;23143;49.474;11.082;2023-04-24T02:55:14;1.13;;;0.80;;
33678;SDS011;23143;49.474;11.082;2023-04-24T02:55:45;1.08;;;0.98;;
33678;SDS011;23143;49.474;11.082;2023-04-24T02:56:16;1.25;;;1.05;;
33678;SDS011;23143;49.474;11.082;2023-04-24T02:56:47;0.70;;;0.70;;
33678;SDS011;23143;49.474;11.082;2023-04-24T02:57:17;1.67;;;1.08;;
33678;SDS011;23143;49.474;11.082;2023-04-24T02:57:48;1.63;;;0.80;;
33678;SDS011;23143;49.474;11.082;2023-04-24T02:58:25;1.08;;;0.90;;
33678;SDS011;23143;49.474;11.082;2023-04-24T02:58:55;2.05;;;1.33;;
33678;SDS011;23143;49.474;11.082;2023-04-24T02:59:26;3.05;;;1.30;;
33678;SDS011;23143;49.474;11.082;2023-04-24T02:59:58;1.17;;;1.00;;
33678;SDS011;23143;49.474;11.082;2023-04-24T03:00:29;1.77;;;0.55;;
33678;SDS011;23143;49.474;11.082;2023-04-24T03:01:00;0.82;;;0.82;;
33678;SDS011;23143;49.474;11.082;2023-04-24T03:01:31;1.35;;;1.10;;
33678;SDS011;23143;49.474;11.082;2023-04-24T03:02:01;1.55;;;0.90;;
33678;SDS011;23143;49.474;11.082;2023-04-24T03:02:32;3.80;;;1.00;;
33678;SDS011;23143;49.474;11.082;2023-04-24T03:03:04;2.80;;;0.95;;
33678;SDS011;23143;49.474;11.082;2023-04-24T03:03:35;1.77;;;1.10;;
33678;SDS011;23143;49.474;11.082;2023-04-24T03:04:07;1.20;;;1.10;;